sensor_id;sensor_type;location;lat;lon;timestamp;pressure;altitude;pressure_sealevel;temperature;humidity
62712;BME280;48772;55.586;37.730;2023-04-16T00:00:11;100737.34;;;4.23;35.81
62712;BME280;48772;55.586;37.730;2023-04-16T00:02:39;100743.53;;;4.22;35.85
62712;BME280;48772;55.586;37.730;2023-04-16T00:05:05;100792.88;;;4.43;36.00
62712;BME280;48772;55.586;37.730;2023-04-16T00:07:31;100777.41;;;4.34;35.86
62712;BME280;48772;55.586;37.730;2023-04-16T00:09:57;100782.84;;;4.29;36.25
62712;BME280;48772;55.586;37.730;2023-04-16T00:12:23;100788.69;;;4.37;35.83
62712;BME280;48772;55.586;37.730;2023-04-16T00:14:48;100794.94;;;4.35;36.41
62712;BME280;48772;55.586;37.730;2023-04-16T00:17:14;100790.59;;;4.34;36.44
62712;BME280;48772;55.586;37.730;2023-04-16T00:19:40;100757.97;;;4.12;36.55
62712;BME280;48772;55.586;37.730;2023-04-16T00:22:06;100784.63;;;4.29;36.40
62712;BME280;48772;55.586;37.730;2023-04-16T00:24:31;100751.31;;;4.02;36.61
62712;BME280;48772;55.586;37.730;2023-04-16T00:26:57;100771.19;;;4.12;36.79
62712;BME280;48772;55.586;37.730;2023-04-16T00:29:23;100771.19;;;4.12;36.65
62712;BME280;48772;55.586;37.730;2023-04-16T00:31:49;100767.97;;;4.04;36.88
62712;BME280;48772;55.586;37.730;2023-04-16T00:34:15;100792.28;;;4.12;36.97
62712;BME280;48772;55.586;37.730;2023-04-16T00:36:41;100784.59;;;4.06;37.01
62712;BME280;48772;55.586;37.730;2023-04-16T00:39:07;100763.97;;;3.92;37.09
62712;BME280;48772;55.586;37.730;2023-04-16T00:41:32;100797.56;;;4.12;37.30
62712;BME280;48772;55.586;37.730;2023-04-16T00:43:58;100801.13;;;4.11;37.43
62712;BME280;48772;55.586;37.730;2023-04-16T00:46:24;100760.69;;;3.86;37.37
62712;BME280;48772;55.586;37.730;2023-04-16T00:48:52;100797.78;;;4.06;37.16
62712;BME280;48772;55.586;37.730;2023-04-16T00:51:18;100781.25;;;4.01;37.37
62712;BME280;48772;55.586;37.730;2023-04-16T00:53:47;100783.78;;;4.04;37.33
62712;BME280;48772;55.586;37.730;2023-04-16T00:56:14;100764.13;;;3.88;37.49
62712;BME280;48772;55.586;37.730;2023-04-16T00:58:40;100802.09;;;4.08;37.55
62712;BME280;48772;55.586;37.730;2023-04-16T01:01:09;100787.47;;;4.00;37.47
62712;BME280;48772;55.586;37.730;2023-04-16T01:03:44;100770.13;;;3.93;37.30
62712;BME280;48772;55.586;37.730;2023-04-16T01:06:11;100782.75;;;4.08;36.77
62712;BME280;48772;55.586;37.730;2023-04-16T01:08:37;100787.28;;;4.04;37.24
62712;BME280;48772;55.586;37.730;2023-04-16T01:11:03;100761.53;;;3.86;37.42
62712;BME280;48772;55.586;37.730;2023-04-16T01:13:29;100779.69;;;3.95;37.98
62712;BME280;48772;55.586;37.730;2023-04-16T01:15:55;100771.31;;;3.84;38.13
62712;BME280;48772;55.586;37.730;2023-04-16T01:18:22;100775.75;;;3.82;38.12
62712;BME280;48772;55.586;37.730;2023-04-16T01:20:51;100777.75;;;3.76;38.07
62712;BME280;48772;55.586;37.730;2023-04-16T01:23:17;100770.88;;;3.72;38.51
62712;BME280;48772;55.586;37.730;2023-04-16T01:25:44;100788.09;;;3.82;38.77
62712;BME280;48772;55.586;37.730;2023-04-16T01:28:10;100788.31;;;3.76;39.02
62712;BME280;48772;55.586;37.730;2023-04-16T01:30:36;100752.16;;;3.53;38.78
62712;BME280;48772;55.586;37.730;2023-04-16T01:33:31;100788.34;;;3.74;39.13
62712;BME280;48772;55.586;37.730;2023-04-16T01:35:56;100738.34;;;3.46;39.25
62712;BME280;48772;55.586;37.730;2023-04-16T01:38:22;100787.81;;;3.65;39.29
62712;BME280;48772;55.586;37.730;2023-04-16T01:40:48;100775.75;;;3.58;39.78
62712;BME280;48772;55.586;37.730;2023-04-16T01:43:14;100794.00;;;3.64;39.85
62712;BME280;48772;55.586;37.730;2023-04-16T01:45:40;100773.44;;;3.48;39.66
62712;BME280;48772;55.586;37.730;2023-04-16T01:48:06;100789.03;;;3.54;40.05
62712;BME280;48772;55.586;37.730;2023-04-16T01:50:32;100793.47;;;3.54;40.18
62712;BME280;48772;55.586;37.730;2023-04-16T01:52:58;100790.09;;;3.49;40.23
62712;BME280;48772;55.586;37.730;2023-04-16T01:55:23;100794.41;;;3.51;40.34
62712;BME280;48772;55.586;37.730;2023-04-16T01:57:49;100783.25;;;3.43;40.64
62712;BME280;48772;55.586;37.730;2023-04-16T02:00:15;100791.06;;;3.46;40.88
62712;BME280;48772;55.586;37.730;2023-04-16T02:02:45;100766.13;;;3.30;40.99
62712;BME280;48772;55.586;37.730;2023-04-16T02:05:14;100797.34;;;3.42;41.27
62712;BME280;48772;55.586;37.730;2023-04-16T02:07:40;100790.69;;;3.31;41.28
62712;BME280;48772;55.586;37.730;2023-04-16T02:10:06;100797.59;;;3.35;41.70
62712;BME280;48772;55.586;37.730;2023-04-16T02:12:36;100794.03;;;3.37;41.77
62712;BME280;48772;55.586;37.730;2023-04-16T02:15:03;100784.50;;;3.33;41.69
62712;BME280;48772;55.586;37.730;2023-04-16T02:17:33;100784.59;;;3.30;41.68
62712;BME280;48772;55.586;37.730;2023-04-16T02:20:08;100776.16;;;3.19;42.43
62712;BME280;48772;55.586;37.730;2023-04-16T02:22:39;100797.72;;;3.32;42.28
62712;BME280;48772;55.586;37.730;2023-04-16T02:25:05;100798.56;;;3.32;42.21
62712;BME280;48772;55.586;37.730;2023-04-16T02:27:34;100790.88;;;3.26;42.58
62712;BME280;48772;55.586;37.730;2023-04-16T02:30:13;100802.31;;;3.25;42.63
62712;BME280;48772;55.586;37.730;2023-04-16T02:32:39;100784.97;;;3.18;42.52
62712;BME280;48772;55.586;37.730;2023-04-16T02:35:06;100801.47;;;3.25;42.62
62712;BME280;48772;55.586;37.730;2023-04-16T02:37:31;100784.22;;;3.15;43.25
62712;BME280;48772;55.586;37.730;2023-04-16T02:39:57;100780.84;;;3.11;43.34
62712;BME280;48772;55.586;37.730;2023-04-16T02:42:23;100768.81;;;3.03;43.22
62712;BME280;48772;55.586;37.730;2023-04-16T02:44:49;100794.63;;;3.19;43.04
62712;BME280;48772;55.586;37.730;2023-04-16T02:47:14;100775.75;;;3.05;43.94
62712;BME280;48772;55.586;37.730;2023-04-16T02:49:40;100793.19;;;3.09;44.14
62712;BME280;48772;55.586;37.730;2023-04-16T02:52:06;100794.19;;;3.05;44.23
62712;BME280;48772;55.586;37.730;2023-04-16T02:54:32;100800.94;;;3.14;44.11
62712;BME280;48772;55.586;37.730;2023-04-16T02:56:58;100807.97;;;3.13;44.13
62712;BME280;48772;55.586;37.730;2023-04-16T02:59:23;100803.63;;;3.12;44.48
62712;BME280;48772;55.586;37.730;2023-04-16T03:01:50;100771.88;;;2.89;44.69
62712;BME280;48772;55.586;37.730;2023-04-16T03:04:15;100784.69;;;3.00;45.11
62712;BME280;48772;55.586;37.730;2023-04-16T03:06:41;100804.47;;;3.13;45.03
62712;BME280;48772;55.586;37.730;2023-04-16T03:09:07;100803.59;;;3.14;45.00
62712;BME280;48772;55.586;37.730;2023-04-16T03:11:33;100807.00;;;3.16;45.03
62712;BME280;48772;55.586;37.730;2023-04-16T03:13:58;100804.31;;;3.17;45.29
62712;BME280;48772;55.586;37.730;2023-04-16T03:16:24;100773.28;;;2.99;45.00
62712;BME280;48772;55.586;37.730;2023-04-16T03:18:50;100810.34;;;3.22;45.16
62712;BME280;48772;55.586;37.730;2023-04-16T03:21:16;100778.38;;;3.05;45.34
62712;BME280;48772;55.586;37.730;2023-04-16T03:23:42;100809.28;;;3.28;45.18
62712;BME280;48772;55.586;37.730;2023-04-16T03:26:08;100793.59;;;3.23;45.47
62712;BME280;48772;55.586;37.730;2023-04-16T03:28:33;100803.00;;;3.32;45.17
62712;BME280;48772;55.586;37.730;2023-04-16T03:30:59;100775.47;;;3.13;44.92
62712;BME280;48772;55.586;37.730;2023-04-16T03:33:25;100805.59;;;3.33;45.16
62712;BME280;48772;55.586;37.730;2023-04-16T03:35:58;100782.97;;;3.26;44.64
62712;BME280;48772;55.586;37.730;2023-04-16T03:38:26;100785.34;;;3.34;44.93
62712;BME280;48772;55.586;37.730;2023-04-16T03:40:54;100794.72;;;3.42;45.03
62712;BME280;48772;55.586;37.730;2023-04-16T03:43:20;100790.31;;;3.43;44.69
62712;BME280;48772;55.586;37.730;2023-04-16T03:45:46;100787.50;;;3.47;44.98
62712;BME280;48772;55.586;37.730;2023-04-16T03:48:12;100803.03;;;3.57;45.21
62712;BME280;48772;55.586;37.730;2023-04-16T03:50:38;100776.75;;;3.53;44.68
62712;BME280;48772;55.586;37.730;2023-04-16T03:53:06;100772.09;;;3.62;44.44
62712;BME280;48772;55.586;37.730;2023-04-16T03:55:34;100785.66;;;3.76;43.96
62712;BME280;48772;55.586;37.730;2023-04-16T03:57:59;100793.00;;;3.92;43.92
62712;BME280;48772;55.586;37.730;2023-04-16T04:00:28;100808.06;;;4.13;43.39
62712;BME280;48772;55.586;37.730;2023-04-16T04:03:02;100783.50;;;4.11;43.12
62712;BME280;48772;55.586;37.730;2023-04-16T04:05:28;100802.13;;;4.31;42.87
62712;BME280;48772;55.586;37.730;2023-04-16T04:07:54;100781.28;;;4.24;42.91
62712;BME280;48772;55.586;37.730;2023-04-16T04:10:20;100765.44;;;4.24;42.61
62712;BME280;48772;55.586;37.730;2023-04-16T04:12:46;100781.53;;;4.41;42.64
62712;BME280;48772;55.586;37.730;2023-04-16T04:15:11;100774.06;;;4.52;42.29
62712;BME280;48772;55.586;37.730;2023-04-16T04:17:37;100756.41;;;4.52;41.71
62712;BME280;48772;55.586;37.730;2023-04-16T04:20:03;100790.44;;;4.83;41.11
62712;BME280;48772;55.586;37.730;2023-04-16T04:22:31;100716.06;;;4.49;41.06
62712;BME280;48772;55.586;37.730;2023-04-16T04:24:57;100799.97;;;5.10;40.86
62712;BME280;48772;55.586;37.730;2023-04-16T04:27:25;100785.31;;;5.23;40.61
62712;BME280;48772;55.586;37.730;2023-04-16T04:29:52;100774.63;;;5.26;40.47
62712;BME280;48772;55.586;37.730;2023-04-16T04:32:18;100750.03;;;5.24;40.92
62712;BME280;48772;55.586;37.730;2023-04-16T04:34:44;100787.50;;;5.55;40.86
62712;BME280;48772;55.586;37.730;2023-04-16T04:37:10;100793.72;;;5.74;41.05
62712;BME280;48772;55.586;37.730;2023-04-16T04:39:37;100780.16;;;5.83;39.88
62712;BME280;48772;55.586;37.730;2023-04-16T04:42:03;100782.22;;;5.96;39.73
62712;BME280;48772;55.586;37.730;2023-04-16T04:44:29;100770.88;;;5.93;39.07
62712;BME280;48772;55.586;37.730;2023-04-16T04:46:55;100769.22;;;6.10;39.48
62712;BME280;48772;55.586;37.730;2023-04-16T04:49:21;100722.69;;;6.05;38.94
62712;BME280;48772;55.586;37.730;2023-04-16T04:51:47;100793.13;;;6.66;38.43
62712;BME280;48772;55.586;37.730;2023-04-16T04:54:13;100773.00;;;6.62;37.84
62712;BME280;48772;55.586;37.730;2023-04-16T04:56:41;100785.84;;;6.71;37.53
62712;BME280;48772;55.586;37.730;2023-04-16T04:59:10;100785.91;;;6.69;37.01
62712;BME280;48772;55.586;37.730;2023-04-16T05:01:37;100789.63;;;6.84;37.21
62712;BME280;48772;55.586;37.730;2023-04-16T05:04:03;100767.41;;;6.86;36.96
62712;BME280;48772;55.586;37.730;2023-04-16T05:06:28;100785.03;;;7.06;36.32
62712;BME280;48772;55.586;37.730;2023-04-16T05:08:54;100786.16;;;7.19;35.98
62712;BME280;48772;55.586;37.730;2023-04-16T05:11:20;100792.25;;;7.21;35.45
62712;BME280;48772;55.586;37.730;2023-04-16T05:13:46;100795.06;;;7.18;35.64
62712;BME280;48772;55.586;37.730;2023-04-16T05:16:11;100799.63;;;7.33;35.95
62712;BME280;48772;55.586;37.730;2023-04-16T05:18:37;100791.88;;;7.29;35.85
62712;BME280;48772;55.586;37.730;2023-04-16T05:21:03;100765.56;;;7.24;35.10
62712;BME280;48772;55.586;37.730;2023-04-16T05:23:29;100785.03;;;7.42;35.40
62712;BME280;48772;55.586;37.730;2023-04-16T05:25:55;100794.19;;;7.53;35.43
62712;BME280;48772;55.586;37.730;2023-04-16T05:28:21;100792.84;;;7.45;33.65
62712;BME280;48772;55.586;37.730;2023-04-16T05:30:47;100783.50;;;7.55;33.28
62712;BME280;48772;55.586;37.730;2023-04-16T05:33:12;100778.75;;;7.78;33.75
62712;BME280;48772;55.586;37.730;2023-04-16T05:35:38;100772.19;;;7.85;32.65
62712;BME280;48772;55.586;37.730;2023-04-16T05:38:04;100751.31;;;7.95;32.40
62712;BME280;48772;55.586;37.730;2023-04-16T05:40:31;100770.44;;;8.18;30.97
62712;BME280;48772;55.586;37.730;2023-04-16T05:42:56;100768.78;;;8.33;30.97
62712;BME280;48772;55.586;37.730;2023-04-16T05:45:23;100762.38;;;8.20;30.37
62712;BME280;48772;55.586;37.730;2023-04-16T05:47:48;100766.78;;;8.53;30.92
62712;BME280;48772;55.586;37.730;2023-04-16T05:50:14;100684.09;;;8.27;30.54
62712;BME280;48772;55.586;37.730;2023-04-16T05:52:40;100765.97;;;8.99;30.18
62712;BME280;48772;55.586;37.730;2023-04-16T05:55:06;100766.66;;;9.18;30.07
62712;BME280;48772;55.586;37.730;2023-04-16T05:57:32;100762.69;;;9.10;30.79
62712;BME280;48772;55.586;37.730;2023-04-16T05:59:58;100737.75;;;9.12;30.81
62712;BME280;48772;55.586;37.730;2023-04-16T06:02:23;100735.34;;;9.37;30.10
62712;BME280;48772;55.586;37.730;2023-04-16T06:04:49;100732.44;;;9.42;30.18
62712;BME280;48772;55.586;37.730;2023-04-16T06:07:15;100765.06;;;10.04;29.37
62712;BME280;48772;55.586;37.730;2023-04-16T06:09:41;100724.19;;;10.20;29.32
62712;BME280;48772;55.586;37.730;2023-04-16T06:12:07;100742.16;;;10.44;28.75
62712;BME280;48772;55.586;37.730;2023-04-16T06:14:32;100771.88;;;10.80;28.04
62712;BME280;48772;55.586;37.730;2023-04-16T06:17:17;100767.78;;;10.75;27.91
62712;BME280;48772;55.586;37.730;2023-04-16T06:19:44;100741.53;;;10.95;27.95
62712;BME280;48772;55.586;37.730;2023-04-16T06:22:09;100721.78;;;10.98;27.72
62712;BME280;48772;55.586;37.730;2023-04-16T06:24:35;100706.19;;;10.92;27.38
62712;BME280;48772;55.586;37.730;2023-04-16T06:27:01;100765.81;;;11.05;26.87
62712;BME280;48772;55.586;37.730;2023-04-16T06:29:27;100754.00;;;11.35;26.83
62712;BME280;48772;55.586;37.730;2023-04-16T06:31:53;100758.28;;;11.38;27.11
62712;BME280;48772;55.586;37.730;2023-04-16T06:34:19;100748.50;;;11.24;26.82
62712;BME280;48772;55.586;37.730;2023-04-16T06:36:45;100759.09;;;11.26;26.45
62712;BME280;48772;55.586;37.730;2023-04-16T06:39:11;100749.88;;;11.44;26.76
62712;BME280;48772;55.586;37.730;2023-04-16T06:41:36;100749.91;;;11.56;26.35
62712;BME280;48772;55.586;37.730;2023-04-16T06:44:02;100760.22;;;11.36;26.18
62712;BME280;48772;55.586;37.730;2023-04-16T06:46:28;100745.84;;;11.24;26.15
62712;BME280;48772;55.586;37.730;2023-04-16T06:48:54;100760.59;;;11.30;25.93
62712;BME280;48772;55.586;37.730;2023-04-16T06:51:20;100752.41;;;11.33;25.64
62712;BME280;48772;55.586;37.730;2023-04-16T06:53:45;100721.41;;;11.04;25.37
62712;BME280;48772;55.586;37.730;2023-04-16T06:56:11;100723.38;;;11.14;24.78
62712;BME280;48772;55.586;37.730;2023-04-16T06:58:37;100740.22;;;11.29;25.09
62712;BME280;48772;55.586;37.730;2023-04-16T07:01:03;100732.94;;;11.57;24.65
62712;BME280;48772;55.586;37.730;2023-04-16T07:03:29;100736.66;;;11.94;23.82
62712;BME280;48772;55.586;37.730;2023-04-16T07:05:55;100720.41;;;12.09;23.48
62712;BME280;48772;55.586;37.730;2023-04-16T07:08:21;100731.19;;;11.95;23.58
62712;BME280;48772;55.586;37.730;2023-04-16T07:10:47;100718.72;;;12.08;23.03
62712;BME280;48772;55.586;37.730;2023-04-16T07:13:13;100727.16;;;12.15;23.30
62712;BME280;48772;55.586;37.730;2023-04-16T07:15:39;100719.56;;;12.09;22.72
62712;BME280;48772;55.586;37.730;2023-04-16T07:18:05;100745.56;;;12.19;22.85
62712;BME280;48772;55.586;37.730;2023-04-16T07:20:30;100739.84;;;12.61;22.02
62712;BME280;48772;55.586;37.730;2023-04-16T07:22:56;100730.34;;;13.06;21.81
62712;BME280;48772;55.586;37.730;2023-04-16T07:25:24;100710.19;;;13.13;21.95
62712;BME280;48772;55.586;37.730;2023-04-16T07:27:51;100711.69;;;13.17;22.13
62712;BME280;48772;55.586;37.730;2023-04-16T07:30:17;100708.38;;;12.77;22.18
62712;BME280;48772;55.586;37.730;2023-04-16T07:32:43;100718.09;;;12.78;21.64
62712;BME280;48772;55.586;37.730;2023-04-16T07:35:08;100713.03;;;12.99;21.29
62712;BME280;48772;55.586;37.730;2023-04-16T07:37:34;100728.38;;;12.84;21.02
62712;BME280;48772;55.586;37.730;2023-04-16T07:40:00;100690.72;;;12.75;21.00
62712;BME280;48772;55.586;37.730;2023-04-16T07:42:26;100726.25;;;13.13;20.98
62712;BME280;48772;55.586;37.730;2023-04-16T07:44:53;100720.97;;;12.88;21.63
62712;BME280;48772;55.586;37.730;2023-04-16T07:47:19;100737.03;;;12.75;20.46
62712;BME280;48772;55.586;37.730;2023-04-16T07:49:48;100722.97;;;12.61;20.76
62712;BME280;48772;55.586;37.730;2023-04-16T07:52:17;100733.19;;;12.67;21.31
62712;BME280;48772;55.586;37.730;2023-04-16T07:54:43;100714.66;;;12.40;21.15
62712;BME280;48772;55.586;37.730;2023-04-16T07:57:09;100713.16;;;12.24;20.76
62712;BME280;48772;55.586;37.730;2023-04-16T07:59:35;100694.66;;;12.21;20.99
62712;BME280;48772;55.586;37.730;2023-04-16T08:02:01;100724.97;;;12.70;20.66
62712;BME280;48772;55.586;37.730;2023-04-16T08:04:27;100687.41;;;12.95;20.48
62712;BME280;48772;55.586;37.730;2023-04-16T08:06:53;100693.13;;;12.42;20.29
62712;BME280;48772;55.586;37.730;2023-04-16T08:09:19;100722.59;;;12.78;20.46
62712;BME280;48772;55.586;37.730;2023-04-16T08:11:46;100700.19;;;12.91;20.25
62712;BME280;48772;55.586;37.730;2023-04-16T08:14:14;100706.81;;;13.22;20.17
62712;BME280;48772;55.586;37.730;2023-04-16T08:16:41;100678.59;;;13.29;19.12
62712;BME280;48772;55.586;37.730;2023-04-16T08:19:07;100702.75;;;14.09;19.22
62712;BME280;48772;55.586;37.730;2023-04-16T08:21:33;100707.81;;;13.90;18.61
62712;BME280;48772;55.586;37.730;2023-04-16T08:23:59;100685.25;;;14.38;18.44
62712;BME280;48772;55.586;37.730;2023-04-16T08:26:25;100676.72;;;14.22;17.87
62712;BME280;48772;55.586;37.730;2023-04-16T08:28:50;100645.63;;;14.31;18.40
62712;BME280;48772;55.586;37.730;2023-04-16T08:31:16;100696.91;;;14.92;18.43
62712;BME280;48772;55.586;37.730;2023-04-16T08:33:42;100655.72;;;14.38;18.98
62712;BME280;48772;55.586;37.730;2023-04-16T08:36:08;100687.19;;;14.47;18.57
62712;BME280;48772;55.586;37.730;2023-04-16T08:38:45;100626.53;;;14.45;17.91
62712;BME280;48772;55.586;37.730;2023-04-16T08:41:12;100686.06;;;15.25;17.88
62712;BME280;48772;55.586;37.730;2023-04-16T08:43:43;100669.09;;;15.56;17.67
62712;BME280;48772;55.586;37.730;2023-04-16T08:46:10;100693.03;;;15.28;17.79
62712;BME280;48772;55.586;37.730;2023-04-16T08:48:37;100676.78;;;15.29;18.04
62712;BME280;48772;55.586;37.730;2023-04-16T08:51:08;100660.47;;;15.10;18.05
62712;BME280;48772;55.586;37.730;2023-04-16T08:53:39;100649.50;;;15.65;18.09
62712;BME280;48772;55.586;37.730;2023-04-16T08:56:08;100639.66;;;15.96;17.88
62712;BME280;48772;55.586;37.730;2023-04-16T08:58:36;100656.81;;;16.55;17.69
62712;BME280;48772;55.586;37.730;2023-04-16T09:01:04;100655.13;;;16.33;17.66
62712;BME280;48772;55.586;37.730;2023-04-16T09:03:31;100623.91;;;16.21;17.89
62712;BME280;48772;55.586;37.730;2023-04-16T09:05:58;100649.56;;;16.56;17.57
62712;BME280;48772;55.586;37.730;2023-04-16T09:08:25;100649.28;;;16.49;17.55
62712;BME280;48772;55.586;37.730;2023-04-16T09:10:52;100655.47;;;16.10;17.92
62712;BME280;48772;55.586;37.730;2023-04-16T09:13:20;100643.06;;;15.57;17.79
62712;BME280;48772;55.586;37.730;2023-04-16T09:15:52;100648.88;;;15.93;17.59
62712;BME280;48772;55.586;37.730;2023-04-16T09:18:18;100610.78;;;15.98;17.25
62712;BME280;48772;55.586;37.730;2023-04-16T09:20:46;100634.19;;;15.45;17.53
62712;BME280;48772;55.586;37.730;2023-04-16T09:23:12;100631.81;;;15.42;17.75
62712;BME280;48772;55.586;37.730;2023-04-16T09:25:37;100643.22;;;15.76;17.34
62712;BME280;48772;55.586;37.730;2023-04-16T09:28:04;100646.75;;;15.76;17.78
62712;BME280;48772;55.586;37.730;2023-04-16T09:30:31;100640.63;;;16.15;17.58
62712;BME280;48772;55.586;37.730;2023-04-16T09:33:12;100640.13;;;15.60;17.50
62712;BME280;48772;55.586;37.730;2023-04-16T09:35:45;100613.63;;;15.55;17.46
62712;BME280;48772;55.586;37.730;2023-04-16T09:38:12;100644.13;;;15.65;17.52
62712;BME280;48772;55.586;37.730;2023-04-16T09:40:38;100614.44;;;15.46;17.60
62712;BME280;48772;55.586;37.730;2023-04-16T09:43:12;100644.97;;;15.45;17.61
62712;BME280;48772;55.586;37.730;2023-04-16T09:45:51;100650.63;;;15.42;17.77
62712;BME280;48772;55.586;37.730;2023-04-16T09:48:31;100641.38;;;15.76;17.46
62712;BME280;48772;55.586;37.730;2023-04-16T09:50:59;100634.69;;;15.91;17.39
62712;BME280;48772;55.586;37.730;2023-04-16T09:53:27;100594.09;;;15.53;17.44
62712;BME280;48772;55.586;37.730;2023-04-16T09:55:58;100632.44;;;15.55;17.94
62712;BME280;48772;55.586;37.730;2023-04-16T09:58:25;100615.34;;;15.77;17.66
62712;BME280;48772;55.586;37.730;2023-04-16T10:01:01;100629.22;;;16.02;17.84
62712;BME280;48772;55.586;37.730;2023-04-16T10:03:29;100619.41;;;15.71;17.50
62712;BME280;48772;55.586;37.730;2023-04-16T10:05:59;100593.63;;;15.69;17.77
62712;BME280;48772;55.586;37.730;2023-04-16T10:08:26;100616.41;;;15.95;17.60
62712;BME280;48772;55.586;37.730;2023-04-16T10:10:55;100627.34;;;16.23;17.44
62712;BME280;48772;55.586;37.730;2023-04-16T10:13:22;100639.13;;;15.81;17.77
62712;BME280;48772;55.586;37.730;2023-04-16T10:15:50;100608.22;;;16.26;17.46
62712;BME280;48772;55.586;37.730;2023-04-16T10:18:16;100610.44;;;17.01;17.11
62712;BME280;48772;55.586;37.730;2023-04-16T10:20:44;100542.16;;;16.43;17.19
62712;BME280;48772;55.586;37.730;2023-04-16T10:23:13;100595.94;;;16.83;17.10
62712;BME280;48772;55.586;37.730;2023-04-16T10:25:41;100605.72;;;17.03;17.24
62712;BME280;48772;55.586;37.730;2023-04-16T10:28:08;100611.44;;;17.19;16.77
62712;BME280;48772;55.586;37.730;2023-04-16T10:30:36;100590.16;;;17.06;16.78
62712;BME280;48772;55.586;37.730;2023-04-16T10:33:03;100599.78;;;17.37;16.38
62712;BME280;48772;55.586;37.730;2023-04-16T10:35:29;100600.25;;;17.52;16.46
62712;BME280;48772;55.586;37.730;2023-04-16T10:37:56;100550.69;;;16.96;16.54
62712;BME280;48772;55.586;37.730;2023-04-16T10:40:26;100576.50;;;17.36;16.45
62712;BME280;48772;55.586;37.730;2023-04-16T10:42:56;100579.94;;;17.48;16.42
62712;BME280;48772;55.586;37.730;2023-04-16T10:45:33;100584.47;;;17.38;16.08
62712;BME280;48772;55.586;37.730;2023-04-16T10:48:08;100583.81;;;17.91;16.13
62712;BME280;48772;55.586;37.730;2023-04-16T10:50:37;100590.66;;;17.86;15.65
62712;BME280;48772;55.586;37.730;2023-04-16T10:53:23;100581.84;;;17.84;15.75
62712;BME280;48772;55.586;37.730;2023-04-16T10:56:10;100579.19;;;17.65;15.81
62712;BME280;48772;55.586;37.730;2023-04-16T10:58:40;100581.94;;;17.46;16.08
62712;BME280;48772;55.586;37.730;2023-04-16T11:01:10;100562.03;;;17.37;16.07
62712;BME280;48772;55.586;37.730;2023-04-16T11:03:40;100585.38;;;18.30;15.57
62712;BME280;48772;55.586;37.730;2023-04-16T11:06:14;100565.41;;;18.14;15.60
62712;BME280;48772;55.586;37.730;2023-04-16T11:08:45;100547.44;;;17.95;15.58
62712;BME280;48772;55.586;37.730;2023-04-16T11:11:11;100564.44;;;18.32;15.77
62712;BME280;48772;55.586;37.730;2023-04-16T11:13:43;100552.38;;;18.00;15.72
62712;BME280;48772;55.586;37.730;2023-04-16T11:16:15;100546.09;;;18.45;15.62
62712;BME280;48772;55.586;37.730;2023-04-16T11:18:41;100560.53;;;18.54;15.70
62712;BME280;48772;55.586;37.730;2023-04-16T11:21:10;100586.81;;;18.25;15.49
62712;BME280;48772;55.586;37.730;2023-04-16T11:23:51;100575.44;;;18.58;15.46
62712;BME280;48772;55.586;37.730;2023-04-16T11:26:27;100559.44;;;19.09;15.25
62712;BME280;48772;55.586;37.730;2023-04-16T11:28:54;100560.09;;;19.11;15.20
62712;BME280;48772;55.586;37.730;2023-04-16T11:31:25;100555.16;;;18.71;15.45
62712;BME280;48772;55.586;37.730;2023-04-16T11:33:51;100552.44;;;18.71;15.38
62712;BME280;48772;55.586;37.730;2023-04-16T11:36:20;100542.94;;;18.50;15.83
62712;BME280;48772;55.586;37.730;2023-04-16T11:38:46;100546.63;;;18.49;15.85
62712;BME280;48772;55.586;37.730;2023-04-16T11:41:18;100544.19;;;19.08;15.36
62712;BME280;48772;55.586;37.730;2023-04-16T11:43:44;100538.50;;;18.49;15.73
62712;BME280;48772;55.586;37.730;2023-04-16T11:46:10;100534.06;;;18.57;15.80
62712;BME280;48772;55.586;37.730;2023-04-16T11:48:50;100555.09;;;18.00;15.85
62712;BME280;48772;55.586;37.730;2023-04-16T11:51:16;100543.72;;;18.33;15.64
62712;BME280;48772;55.586;37.730;2023-04-16T11:53:50;100511.56;;;18.39;15.75
62712;BME280;48772;55.586;37.730;2023-04-16T11:56:28;100522.56;;;19.08;15.59
62712;BME280;48772;55.586;37.730;2023-04-16T11:59:11;100514.75;;;18.87;15.61
62712;BME280;48772;55.586;37.730;2023-04-16T12:01:39;100510.78;;;17.93;16.54
62712;BME280;48772;55.586;37.730;2023-04-16T12:04:06;100528.50;;;18.32;16.10
62712;BME280;48772;55.586;37.730;2023-04-16T12:06:32;100514.88;;;18.24;15.88
62712;BME280;48772;55.586;37.730;2023-04-16T12:08:59;100515.97;;;18.40;15.87
62712;BME280;48772;55.586;37.730;2023-04-16T12:11:41;100503.94;;;18.25;16.09
62712;BME280;48772;55.586;37.730;2023-04-16T12:14:11;100509.06;;;18.01;15.97
62712;BME280;48772;55.586;37.730;2023-04-16T12:16:37;100534.31;;;17.64;15.87
62712;BME280;48772;55.586;37.730;2023-04-16T12:19:04;100517.72;;;17.40;16.21
62712;BME280;48772;55.586;37.730;2023-04-16T12:21:44;100514.03;;;17.60;16.01
62712;BME280;48772;55.586;37.730;2023-04-16T12:24:14;100499.22;;;18.10;15.86
62712;BME280;48772;55.586;37.730;2023-04-16T12:26:43;100489.31;;;18.28;15.80
62712;BME280;48772;55.586;37.730;2023-04-16T12:31:45;100465.16;;;18.26;15.62
62712;BME280;48772;55.586;37.730;2023-04-16T12:34:14;100489.59;;;18.25;16.07
62712;BME280;48772;55.586;37.730;2023-04-16T12:36:42;100489.81;;;18.41;15.42
62712;BME280;48772;55.586;37.730;2023-04-16T12:39:08;100484.44;;;17.77;15.46
62712;BME280;48772;55.586;37.730;2023-04-16T12:41:37;100476.16;;;17.88;15.61
62712;BME280;48772;55.586;37.730;2023-04-16T12:44:15;100452.16;;;18.12;15.53
62712;BME280;48772;55.586;37.730;2023-04-16T12:46:43;100460.94;;;18.14;15.61
62712;BME280;48772;55.586;37.730;2023-04-16T12:49:10;100468.00;;;17.71;15.92